Kang Man — VRAC3 — position and weather

sailwx.info

Track history (hours):
 
Tides and Currents Weather Stations Pressure Air Temp Water Temp Dewpoint Dewpoint Depression Visibility Wind Speed Wind Dir Waves Ship Positions

Kang Man

Last reported at 2017-Oct-29 08:19 UTC. Time now 2017-Nov-18 08:55 UTC.
Position N 14°27' W 027°04'.
Warning: this ship's position is 20 days out of date.

Length 190 m; draft 9.6 m.

Type: Cargo ship. MMSI: 477360500.

Date/timePositionNaut miles runAvg speedWind from/ knotsBaromVisibWave heightAir tempDewpointWater temp
2017-Oct-29 08:19N 14°27' W 027°04'613.2
2017-Oct-29 07:50N 14°33' W 027°02'513.4
2017-Oct-29 07:29N 14°37' W 027°01'713.6
2017-Oct-29 07:00N 14°44' W 026°59'2013.6
2017-Oct-29 05:32N 15°03' W 026°53'213.1
2017-Oct-29 05:22N 15°05' W 026°52'513.2
2017-Oct-29 05:00N 15°10' W 026°50'713.0
2017-Oct-29 04:28N 15°16' W 026°48'12613.3
2017-Oct-28 18:59N 17°16' W 026°08'613.4
2017-Oct-28 18:30N 17°22' W 026°06'713.6
2017-Oct-28 18:00N 17°28' W 026°03'713.4
2017-Oct-28 17:29N 17°34' W 025°59'33813.5
2017-Oct-27 16:27N 22°39' W 023°25'1413.7
2017-Oct-27 15:27N 22°52' W 023°18'1113.7
2017-Oct-27 14:39N 23°02' W 023°13'213.5
2017-Oct-27 14:29N 23°04' W 023°12'613.3
2017-Oct-27 13:59N 23°10' W 023°09'713.1
2017-Oct-27 13:28N 23°16' W 023°06'612.9
2017-Oct-27 13:00N 23°21' W 023°03'713.0
2017-Oct-27 12:29N 23°28' W 023°00'613.1
2017-Oct-27 11:59N 23°33' W 022°57'1113.2
2017-Oct-27 11:10N 23°43' W 022°52'213.1
2017-Oct-27 11:00N 23°45' W 022°51'713.1
2017-Oct-27 10:30N 23°51' W 022°48'713.0
2017-Oct-27 09:59N 23°57' W 022°44'713.0
2017-Oct-27 09:29N 24°03' W 022°41'613.1
2017-Oct-27 09:00N 24°08' W 022°39'712.8
2017-Oct-27 08:30N 24°14' W 022°36'712.9
2017-Oct-27 07:59N 24°20' W 022°32'613.4
2017-Oct-27 07:30N 24°26' W 022°29'713.3
2017-Oct-27 06:59N 24°32' W 022°26'713.0
2017-Oct-27 06:29N 24°38' W 022°23'613.0
2017-Oct-27 06:00N 24°44' W 022°20'713.4
2017-Oct-27 05:30N 24°50' W 022°17'713.4
2017-Oct-27 04:59N 24°56' W 022°14'613.0
2017-Oct-27 04:30N 25°02' W 022°11'713.1
2017-Oct-27 03:59N 25°08' W 022°08'613.2
2017-Oct-27 03:30N 25°14' W 022°04'713.4
2017-Oct-27 02:59N 25°20' W 022°01'713.4
2017-Oct-27 02:29N 25°26' W 021°58'612.7
2017-Oct-27 01:59N 25°32' W 021°55'713.0
2017-Oct-27 01:29N 25°38' W 021°52'713.4
2017-Oct-27 01:00N 25°44' W 021°49'713.4
2017-Oct-27 00:30N 25°50' W 021°46'713.3
2017-Oct-26 23:56N 25°56' W 021°42'9313.5
2017-Oct-26 17:04N 27°20' W 020°57'113.2
2017-Oct-26 17:00N 27°21' W 020°57'5813.3
2017-Oct-26 12:39N 28°13' W 020°29'413.6
2017-Oct-26 12:21N 28°17' W 020°27'3713.3
2017-Oct-26 09:33N 28°51' W 020°08'413.5
2017-Oct-26 09:14N 28°55' W 020°06'4512.6
2017-Oct-26 05:40N 29°35' W 019°45'412.1
2017-Oct-26 05:22N 29°38' W 019°43'1012.2
2017-Oct-26 04:31N 29°48' W 019°38'112.2
2017-Oct-26 04:25N 29°49' W 019°37'612.1
2017-Oct-26 03:55N 29°54' W 019°34'2812.1
2017-Oct-26 01:35N 30°20' W 019°20'112.3
2017-Oct-26 01:28N 30°21' W 019°19'  
2017-Oct-23 14:37N 40°57' W 012°22'  
2017-Oct-21 00:30N 49°05' W 005°20'1010.5
2017-Oct-20 23:33N 49°10' W 005°07'111.2
2017-Oct-20 23:27N 49°11' W 005°06'2411.2
2017-Oct-20 21:16N 49°23' W 004°33'310.6
2017-Oct-20 21:00N 49°24' W 004°29'510.1
2017-Oct-20 20:30N 49°27' W 004°23'30 9.3
2017-Oct-20 17:15N 49°42' W 003°42'3 9.1
2017-Oct-20 16:56N 49°43' W 003°38'4 9.5
2017-Oct-20 16:29N 49°45' W 003°33'510.1
2017-Oct-20 16:00N 49°48' W 003°26'510.6
2017-Oct-20 15:30N 49°51' W 003°19'611.3
2017-Oct-20 15:00N 49°54' W 003°12'612.3
2017-Oct-20 14:31N 49°57' W 003°03'1313.0
2017-Oct-20 13:29N 50°01' W 002°44'90 7.7
2017-Oct-20 01:42N 50°24' W 000°28'211.4
2017-Oct-20 01:30N 50°25' W 000°24'611.2
2017-Oct-20 01:00N 50°27' W 000°15'510.9
2017-Oct-20 00:30N 50°28' W 000°07'510.5
2017-Oct-20 00:00N 50°29' E 000°01'510.2
2017-Oct-19 23:30N 50°30' E 000°09'5 9.8
2017-Oct-19 23:00N 50°32' E 000°16'5 9.2
2017-Oct-19 22:30N 50°33' E 000°23'5 9.3
2017-Oct-19 22:00N 50°35' E 000°30'5 9.2
2017-Oct-19 21:30N 50°37' E 000°36'5 9.1
2017-Oct-19 21:00N 50°39' E 000°43'5 9.6
2017-Oct-19 20:30N 50°41' E 000°49'510.3
2017-Oct-19 20:01N 50°44' E 000°56'611.3
2017-Oct-19 19:27N 50°48' E 001°04'612.4
2017-Oct-19 19:00N 50°51' E 001°11'713.2
2017-Oct-19 18:30N 50°55' E 001°19'713.9
2017-Oct-19 18:00N 51°01' E 001°26'713.4
2017-Oct-19 17:30N 51°05' E 001°34'612.9
2017-Oct-19 17:00N 51°10' E 001°40'611.9
2017-Oct-19 16:30N 51°15' E 001°46'611.3
2017-Oct-19 16:00N 51°20' E 001°51'510.7
2017-Oct-19 15:30N 51°24' E 001°55'5 9.1
2017-Oct-19 15:00N 51°25' E 002°03'612.2
2017-Oct-19 14:30N 51°22' E 002°11'510.8
2017-Oct-19 14:00N 51°21' E 002°20'510.4
2017-Oct-19 13:30N 51°22' E 002°28'610.5
2017-Oct-19 12:58N 51°23' E 002°37'511.0
2017-Oct-19 12:31N 51°22' E 002°44'510.4
2017-Oct-19 12:00N 51°23' E 002°53'510.2
2017-Oct-19 11:30N 51°24' E 003°01'5 9.5
2017-Oct-19 11:00N 51°24' E 003°08'510.1
2017-Oct-19 10:30N 51°25' E 003°16'510.7
2017-Oct-19 10:00N 51°25' E 003°25'511.0
2017-Oct-19 09:30N 51°26' E 003°34'5 9.9
2017-Oct-19 09:00N 51°26' E 003°42'3 5.7
2017-Oct-19 08:28N 51°24' E 003°45'  
Track history (hours):
 
Tides and Currents Weather Stations Pressure Air Temp Water Temp Dewpoint Dewpoint Depression Visibility Wind Speed Wind Dir Waves Ship Positions

Kang Man

Last reported at 2017-Oct-29 08:19 UTC. Time now 2017-Nov-18 08:55 UTC.
Position N 14°27' W 027°04'.
Warning: this ship's position is 20 days out of date.

Length 190 m; draft 9.6 m.

Type: Cargo ship. MMSI: 477360500.

Date/timePositionNaut miles runAvg speedWind from/ knotsBaromVisibWave heightAir tempDewpointWater temp
2017-Oct-29 08:19N 14°27' W 027°04'613.2
2017-Oct-29 07:50N 14°33' W 027°02'513.4
2017-Oct-29 07:29N 14°37' W 027°01'713.6
2017-Oct-29 07:00N 14°44' W 026°59'2013.6
2017-Oct-29 05:32N 15°03' W 026°53'213.1
2017-Oct-29 05:22N 15°05' W 026°52'513.2
2017-Oct-29 05:00N 15°10' W 026°50'713.0
2017-Oct-29 04:28N 15°16' W 026°48'12613.3
2017-Oct-28 18:59N 17°16' W 026°08'613.4
2017-Oct-28 18:30N 17°22' W 026°06'713.6
2017-Oct-28 18:00N 17°28' W 026°03'713.4
2017-Oct-28 17:29N 17°34' W 025°59'33813.5
2017-Oct-27 16:27N 22°39' W 023°25'1413.7
2017-Oct-27 15:27N 22°52' W 023°18'1113.7
2017-Oct-27 14:39N 23°02' W 023°13'213.5
2017-Oct-27 14:29N 23°04' W 023°12'613.3
2017-Oct-27 13:59N 23°10' W 023°09'713.1
2017-Oct-27 13:28N 23°16' W 023°06'612.9
2017-Oct-27 13:00N 23°21' W 023°03'713.0
2017-Oct-27 12:29N 23°28' W 023°00'613.1
2017-Oct-27 11:59N 23°33' W 022°57'1113.2
2017-Oct-27 11:10N 23°43' W 022°52'213.1
2017-Oct-27 11:00N 23°45' W 022°51'713.1
2017-Oct-27 10:30N 23°51' W 022°48'713.0
2017-Oct-27 09:59N 23°57' W 022°44'713.0
2017-Oct-27 09:29N 24°03' W 022°41'613.1
2017-Oct-27 09:00N 24°08' W 022°39'712.8
2017-Oct-27 08:30N 24°14' W 022°36'712.9
2017-Oct-27 07:59N 24°20' W 022°32'613.4
2017-Oct-27 07:30N 24°26' W 022°29'713.3
2017-Oct-27 06:59N 24°32' W 022°26'713.0
2017-Oct-27 06:29N 24°38' W 022°23'613.0
2017-Oct-27 06:00N 24°44' W 022°20'713.4
2017-Oct-27 05:30N 24°50' W 022°17'713.4
2017-Oct-27 04:59N 24°56' W 022°14'613.0
2017-Oct-27 04:30N 25°02' W 022°11'713.1
2017-Oct-27 03:59N 25°08' W 022°08'613.2
2017-Oct-27 03:30N 25°14' W 022°04'713.4
2017-Oct-27 02:59N 25°20' W 022°01'713.4
2017-Oct-27 02:29N 25°26' W 021°58'612.7
2017-Oct-27 01:59N 25°32' W 021°55'713.0
2017-Oct-27 01:29N 25°38' W 021°52'713.4
2017-Oct-27 01:00N 25°44' W 021°49'713.4
2017-Oct-27 00:30N 25°50' W 021°46'713.3
2017-Oct-26 23:56N 25°56' W 021°42'9313.5
2017-Oct-26 17:04N 27°20' W 020°57'113.2
2017-Oct-26 17:00N 27°21' W 020°57'5813.3
2017-Oct-26 12:39N 28°13' W 020°29'413.6
2017-Oct-26 12:21N 28°17' W 020°27'3713.3
2017-Oct-26 09:33N 28°51' W 020°08'413.5
2017-Oct-26 09:14N 28°55' W 020°06'4512.6
2017-Oct-26 05:40N 29°35' W 019°45'412.1
2017-Oct-26 05:22N 29°38' W 019°43'1012.2
2017-Oct-26 04:31N 29°48' W 019°38'112.2
2017-Oct-26 04:25N 29°49' W 019°37'612.1
2017-Oct-26 03:55N 29°54' W 019°34'2812.1
2017-Oct-26 01:35N 30°20' W 019°20'112.3
2017-Oct-26 01:28N 30°21' W 019°19'  
2017-Oct-23 14:37N 40°57' W 012°22'  
2017-Oct-21 00:30N 49°05' W 005°20'1010.5
2017-Oct-20 23:33N 49°10' W 005°07'111.2
2017-Oct-20 23:27N 49°11' W 005°06'2411.2
2017-Oct-20 21:16N 49°23' W 004°33'310.6
2017-Oct-20 21:00N 49°24' W 004°29'510.1
2017-Oct-20 20:30N 49°27' W 004°23'30 9.3
2017-Oct-20 17:15N 49°42' W 003°42'3 9.1
2017-Oct-20 16:56N 49°43' W 003°38'4 9.5
2017-Oct-20 16:29N 49°45' W 003°33'510.1
2017-Oct-20 16:00N 49°48' W 003°26'510.6
2017-Oct-20 15:30N 49°51' W 003°19'611.3
2017-Oct-20 15:00N 49°54' W 003°12'612.3
2017-Oct-20 14:31N 49°57' W 003°03'1313.0
2017-Oct-20 13:29N 50°01' W 002°44'90 7.7
2017-Oct-20 01:42N 50°24' W 000°28'211.4
2017-Oct-20 01:30N 50°25' W 000°24'611.2
2017-Oct-20 01:00N 50°27' W 000°15'510.9
2017-Oct-20 00:30N 50°28' W 000°07'510.5
2017-Oct-20 00:00N 50°29' E 000°01'510.2
2017-Oct-19 23:30N 50°30' E 000°09'5 9.8
2017-Oct-19 23:00N 50°32' E 000°16'5 9.2
2017-Oct-19 22:30N 50°33' E 000°23'5 9.3
2017-Oct-19 22:00N 50°35' E 000°30'5 9.2
2017-Oct-19 21:30N 50°37' E 000°36'5 9.1
2017-Oct-19 21:00N 50°39' E 000°43'5 9.6
2017-Oct-19 20:30N 50°41' E 000°49'510.3
2017-Oct-19 20:01N 50°44' E 000°56'611.3
2017-Oct-19 19:27N 50°48' E 001°04'612.4
2017-Oct-19 19:00N 50°51' E 001°11'713.2
2017-Oct-19 18:30N 50°55' E 001°19'713.9
2017-Oct-19 18:00N 51°01' E 001°26'713.4
2017-Oct-19 17:30N 51°05' E 001°34'612.9
2017-Oct-19 17:00N 51°10' E 001°40'611.9
2017-Oct-19 16:30N 51°15' E 001°46'611.3
2017-Oct-19 16:00N 51°20' E 001°51'510.7
2017-Oct-19 15:30N 51°24' E 001°55'5 9.1
2017-Oct-19 15:00N 51°25' E 002°03'612.2
2017-Oct-19 14:30N 51°22' E 002°11'510.8
2017-Oct-19 14:00N 51°21' E 002°20'510.4
2017-Oct-19 13:30N 51°22' E 002°28'610.5
2017-Oct-19 12:58N 51°23' E 002°37'511.0
2017-Oct-19 12:31N 51°22' E 002°44'510.4
2017-Oct-19 12:00N 51°23' E 002°53'510.2
2017-Oct-19 11:30N 51°24' E 003°01'5 9.5
2017-Oct-19 11:00N 51°24' E 003°08'510.1
2017-Oct-19 10:30N 51°25' E 003°16'510.7
2017-Oct-19 10:00N 51°25' E 003°25'511.0
2017-Oct-19 09:30N 51°26' E 003°34'5 9.9
2017-Oct-19 09:00N 51°26' E 003°42'3 5.7
2017-Oct-19 08:28N 51°24' E 003°45'  

Dump ship's entire track history